Time;durP1;ratioP1;P1;durP2;ratioP2;P2;SDS_P1;SDS_P2;PMS_P1;PMS_P2;Temp;Humidity;BMP_temperature;BMP_pressure;BME280_temperature;BME280_humidity;BME280_pressure;Samples;Min_cycle;Max_cycle;Signal;HPM_P1;HPM_P2
2022/08/02 00:00:43;;;;;;;7.63;5.65;;;;;;;;;;5022613;28;20033;-65
2022/08/02 00:03:09;;;;;;;9.45;6.25;;;;;;;;;;5022386;28;20029;-65
2022/08/02 00:05:34;;;;;;;10.45;5.63;;;;;;;;;;5024086;28;20026;-65
2022/08/02 00:07:59;;;;;;;7.68;4.97;;;;;;;;;;5026058;28;20207;-65
2022/08/02 00:10:25;;;;;;;7.47;5.50;;;;;;;;;;5032618;28;20113;-65
2022/08/02 00:12:50;;;;;;;9.52;6.30;;;;;;;;;;5018557;28;20034;-65
2022/08/02 00:15:16;;;;;;;8.77;6.10;;;;;;;;;;5027899;28;20116;-65
2022/08/02 00:17:43;;;;;;;8.70;5.57;;;;;;;;;;5023393;28;20034;-65
2022/08/02 00:20:09;;;;;;;11.95;5.93;;;;;;;;;;5022644;28;20259;-65
2022/08/02 00:22:34;;;;;;;7.18;5.80;;;;;;;;;;5019180;28;20048;-65
2022/08/02 00:25:00;;;;;;;8.80;5.93;;;;;;;;;;5021215;28;20026;-65
2022/08/02 00:27:25;;;;;;;10.00;6.10;;;;;;;;;;5022000;28;20084;-65
2022/08/02 00:29:51;;;;;;;9.57;6.05;;;;;;;;;;5025295;28;20064;-65
2022/08/02 00:32:16;;;;;;;8.43;5.70;;;;;;;;;;5031034;28;20159;-65
2022/08/02 00:34:41;;;;;;;8.00;5.72;;;;;;;;;;5025323;28;20394;-65
2022/08/02 00:37:07;;;;;;;8.13;5.70;;;;;;;;;;5008868;28;20022;-65
2022/08/02 00:39:32;;;;;;;8.30;6.18;;;;;;;;;;5027608;28;20034;-65
2022/08/02 00:41:57;;;;;;;8.38;5.78;;;;;;;;;;5027549;28;20493;-65
2022/08/02 00:44:23;;;;;;;6.95;5.57;;;;;;;;;;5023465;28;20037;-65
2022/08/02 00:46:48;;;;;;;7.45;5.82;;;;;;;;;;5026267;28;20075;-65
2022/08/02 00:49:14;;;;;;;7.75;5.50;;;;;;;;;;5027155;28;20036;-65
2022/08/02 00:51:39;;;;;;;8.40;6.05;;;;;;;;;;5030840;28;20042;-65
2022/08/02 00:54:05;;;;;;;9.23;5.82;;;;;;;;;;5023275;28;20057;-65
2022/08/02 00:56:31;;;;;;;9.38;5.72;;;;;;;;;;5029781;28;20029;-65
2022/08/02 00:58:56;;;;;;;7.45;5.30;;;;;;;;;;5026445;28;20035;-65
2022/08/02 01:01:37;;;;;;;7.60;5.25;;;;;;;;;;5022627;28;20517;-65
2022/08/02 01:04:07;;;;;;;7.55;5.72;;;;;;;;;;5025808;28;20146;-65
2022/08/02 01:06:32;;;;;;;8.48;5.38;;;;;;;;;;5025477;28;20095;-65
2022/08/02 01:08:59;;;;;;;8.25;5.47;;;;;;;;;;5024511;28;20041;-65
2022/08/02 01:11:25;;;;;;;11.05;5.75;;;;;;;;;;5024220;28;20040;-65
2022/08/02 01:13:51;;;;;;;7.57;5.22;;;;;;;;;;5024902;28;20037;-65
2022/08/02 01:16:22;;;;;;;8.35;5.30;;;;;;;;;;5031409;28;20048;-65
2022/08/02 01:18:53;;;;;;;9.30;5.03;;;;;;;;;;5030825;28;20026;-65
2022/08/02 01:21:48;;;;;;;9.18;5.25;;;;;;;;;;5030686;28;20033;-65
2022/08/02 01:24:28;;;;;;;9.90;4.88;;;;;;;;;;5032173;28;20065;-65
2022/08/02 01:27:09;;;;;;;10.70;4.70;;;;;;;;;;5030386;28;20041;-65
2022/08/02 01:29:40;;;;;;;7.18;4.82;;;;;;;;;;5027306;28;20103;-65
2022/08/02 01:32:15;;;;;;;8.45;4.45;;;;;;;;;;5032381;28;20029;-65
2022/08/02 01:35:09;;;;;;;7.28;4.60;;;;;;;;;;5031557;28;20052;-65
2022/08/02 01:38:06;;;;;;;8.65;4.63;;;;;;;;;;5021490;28;20030;-65
2022/08/02 01:40:34;;;;;;;7.63;4.43;;;;;;;;;;5025594;28;20033;-65
2022/08/02 01:43:01;;;;;;;6.72;4.70;;;;;;;;;;5023705;28;20063;-65
2022/08/02 01:45:31;;;;;;;6.43;4.60;;;;;;;;;;5026240;28;20037;-65
2022/08/02 01:47:59;;;;;;;8.02;4.03;;;;;;;;;;5029538;28;20419;-65
2022/08/02 01:50:31;;;;;;;7.60;4.43;;;;;;;;;;5027925;28;20063;-65
2022/08/02 01:52:58;;;;;;;7.93;3.97;;;;;;;;;;5023949;28;20029;-65
2022/08/02 01:55:27;;;;;;;6.93;4.05;;;;;;;;;;5029929;28;20296;-65
2022/08/02 01:57:56;;;;;;;8.15;4.55;;;;;;;;;;5026549;28;20084;-65
2022/08/02 02:00:24;;;;;;;6.18;3.88;;;;;;;;;;5028614;28;20030;-65
2022/08/02 02:02:52;;;;;;;7.18;3.88;;;;;;;;;;5027461;28;20063;-65
2022/08/02 02:05:21;;;;;;;7.18;3.90;;;;;;;;;;5029328;28;20037;-65
2022/08/02 02:07:49;;;;;;;7.13;3.70;;;;;;;;;;5028163;28;20048;-65
2022/08/02 02:10:20;;;;;;;7.68;4.40;;;;;;;;;;5028363;28;20022;-65
2022/08/02 02:12:50;;;;;;;5.80;3.80;;;;;;;;;;5023539;28;20558;-65
2022/08/02 02:15:16;;;;;;;5.50;3.47;;;;;;;;;;5025031;28;20091;-65
2022/08/02 02:17:44;;;;;;;4.72;3.45;;;;;;;;;;5030815;28;20040;-65
2022/08/02 02:20:14;;;;;;;6.10;3.80;;;;;;;;;;5032934;28;20564;-65
2022/08/02 02:22:39;;;;;;;6.18;3.85;;;;;;;;;;5028747;28;20029;-65
2022/08/02 02:25:06;;;;;;;6.07;3.45;;;;;;;;;;5025809;28;20406;-65
2022/08/02 02:27:33;;;;;;;6.03;3.63;;;;;;;;;;5031271;28;20088;-65
2022/08/02 02:30:00;;;;;;;6.05;3.67;;;;;;;;;;5030634;28;20037;-65
2022/08/02 02:32:27;;;;;;;7.15;3.40;;;;;;;;;;5024409;28;20029;-65
2022/08/02 02:34:54;;;;;;;6.78;3.65;;;;;;;;;;5023659;28;20051;-65
2022/08/02 02:37:22;;;;;;;6.47;3.90;;;;;;;;;;5028456;28;20482;-65
2022/08/02 02:39:53;;;;;;;4.93;3.40;;;;;;;;;;5026513;28;20541;-65
2022/08/02 02:42:24;;;;;;;4.88;3.30;;;;;;;;;;5029404;28;20041;-65
2022/08/02 02:44:50;;;;;;;5.95;3.28;;;;;;;;;;5026867;28;20087;-65
2022/08/02 02:47:18;;;;;;;5.93;3.65;;;;;;;;;;5026405;28;20992;-65
2022/08/02 02:49:46;;;;;;;7.03;3.60;;;;;;;;;;5023772;28;20040;-65
2022/08/02 02:52:14;;;;;;;5.50;3.83;;;;;;;;;;5027437;28;20053;-65
2022/08/02 02:54:41;;;;;;;5.35;3.58;;;;;;;;;;5026897;28;20055;-65
2022/08/02 02:57:07;;;;;;;5.90;3.65;;;;;;;;;;5027241;28;20080;-65
2022/08/02 02:59:37;;;;;;;6.65;3.72;;;;;;;;;;5022116;28;20477;-65
2022/08/02 03:02:04;;;;;;;6.38;3.85;;;;;;;;;;5025530;28;20481;-65
2022/08/02 03:04:30;;;;;;;7.53;4.18;;;;;;;;;;5023874;28;20030;-65
2022/08/02 03:06:55;;;;;;;8.35;4.40;;;;;;;;;;5024967;28;20038;-65
2022/08/02 03:09:21;;;;;;;9.73;4.03;;;;;;;;;;5026362;28;20045;-65
2022/08/02 03:11:47;;;;;;;8.35;4.28;;;;;;;;;;5026316;28;20168;-65
2022/08/02 03:14:12;;;;;;;4.88;3.67;;;;;;;;;;5027725;28;20040;-65
2022/08/02 03:16:42;;;;;;;7.90;3.97;;;;;;;;;;5025897;28;20018;-65
2022/08/02 03:19:08;;;;;;;5.53;3.72;;;;;;;;;;5025991;28;20049;-65
2022/08/02 03:21:33;;;;;;;6.30;4.07;;;;;;;;;;5026080;28;20037;-65
2022/08/02 03:23:58;;;;;;;5.55;3.80;;;;;;;;;;5025004;28;20061;-65
2022/08/02 03:26:24;;;;;;;8.07;4.03;;;;;;;;;;5026963;28;20033;-65
2022/08/02 03:28:49;;;;;;;7.10;4.05;;;;;;;;;;5026047;28;20071;-65
2022/08/02 03:31:14;;;;;;;7.22;4.00;;;;;;;;;;5030923;28;20037;-65
2022/08/02 03:33:40;;;;;;;6.68;3.85;;;;;;;;;;5024394;28;20045;-65
2022/08/02 03:36:10;;;;;;;11.20;4.22;;;;;;;;;;5024534;28;20053;-65
2022/08/02 03:38:36;;;;;;;7.30;3.80;;;;;;;;;;5028040;28;20132;-65
2022/08/02 03:41:03;;;;;;;6.03;3.92;;;;;;;;;;5026832;28;20037;-65
2022/08/02 03:43:29;;;;;;;11.35;3.72;;;;;;;;;;5028823;28;20048;-65
2022/08/02 03:45:55;;;;;;;6.88;3.80;;;;;;;;;;5026990;28;20034;-65
2022/08/02 03:48:22;;;;;;;6.38;3.97;;;;;;;;;;5026827;28;20506;-65
2022/08/02 03:50:47;;;;;;;7.78;4.03;;;;;;;;;;5024916;28;20037;-65
2022/08/02 03:53:15;;;;;;;5.47;3.88;;;;;;;;;;5026788;28;20049;-65
2022/08/02 03:55:40;;;;;;;7.00;4.03;;;;;;;;;;5024264;28;20037;-65
2022/08/02 03:58:07;;;;;;;6.82;3.70;;;;;;;;;;5029279;28;20120;-65
2022/08/02 04:00:32;;;;;;;5.95;3.55;;;;;;;;;;5025634;28;20045;-65
2022/08/02 04:02:58;;;;;;;7.65;3.92;;;;;;;;;;5026694;28;20030;-65
2022/08/02 04:05:24;;;;;;;7.95;3.50;;;;;;;;;;5023041;28;20029;-65
2022/08/02 04:07:50;;;;;;;7.50;4.05;;;;;;;;;;5025366;28;20056;-65
2022/08/02 04:10:15;;;;;;;6.10;3.65;;;;;;;;;;5025476;28;20013;-65
2022/08/02 04:12:41;;;;;;;5.43;3.58;;;;;;;;;;5023949;28;20049;-65
2022/08/02 04:15:07;;;;;;;5.47;3.65;;;;;;;;;;5026437;28;20562;-65
2022/08/02 04:17:37;;;;;;;8.93;4.00;;;;;;;;;;5021931;28;20040;-65
2022/08/02 04:20:09;;;;;;;6.10;3.92;;;;;;;;;;5023403;28;20112;-65
2022/08/02 04:22:40;;;;;;;7.13;4.00;;;;;;;;;;5025903;28;20172;-65
2022/08/02 04:25:09;;;;;;;5.95;3.65;;;;;;;;;;5022375;28;20042;-65
2022/08/02 04:27:36;;;;;;;8.30;4.30;;;;;;;;;;5023229;28;20065;-65
2022/08/02 04:30:04;;;;;;;6.60;4.13;;;;;;;;;;5024919;28;20041;-65
2022/08/02 04:32:31;;;;;;;6.22;3.70;;;;;;;;;;5029006;28;20037;-65
2022/08/02 04:34:56;;;;;;;6.32;3.47;;;;;;;;;;5019914;28;20247;-65
2022/08/02 04:37:22;;;;;;;7.22;4.18;;;;;;;;;;5027402;28;20033;-65
2022/08/02 04:39:47;;;;;;;6.22;4.07;;;;;;;;;;5025353;28;20098;-65
2022/08/02 04:42:23;;;;;;;7.57;4.05;;;;;;;;;;5025037;28;20029;-65
2022/08/02 04:44:49;;;;;;;7.13;3.88;;;;;;;;;;5022370;28;20128;-65
2022/08/02 04:47:15;;;;;;;7.63;4.18;;;;;;;;;;5025033;28;20088;-65
2022/08/02 04:49:40;;;;;;;7.00;4.00;;;;;;;;;;5028596;28;20184;-65
2022/08/02 04:52:06;;;;;;;9.43;4.32;;;;;;;;;;5028184;28;20028;-65
2022/08/02 04:54:31;;;;;;;9.05;4.32;;;;;;;;;;5030499;28;20052;-65
2022/08/02 04:56:57;;;;;;;7.20;3.85;;;;;;;;;;5028982;28;20049;-65
2022/08/02 04:59:22;;;;;;;7.43;4.10;;;;;;;;;;5027662;28;20022;-65
2022/08/02 05:01:47;;;;;;;9.65;4.20;;;;;;;;;;5028667;28;20048;-65
2022/08/02 05:04:13;;;;;;;10.48;3.88;;;;;;;;;;5029495;28;20022;-65
2022/08/02 05:06:38;;;;;;;7.88;3.78;;;;;;;;;;5026775;28;20097;-65
2022/08/02 05:09:04;;;;;;;7.75;3.75;;;;;;;;;;5033936;28;20565;-65
2022/08/02 05:11:29;;;;;;;6.45;3.80;;;;;;;;;;5029856;28;20036;-65
2022/08/02 05:13:54;;;;;;;7.28;3.92;;;;;;;;;;5030279;28;20227;-65
2022/08/02 05:16:20;;;;;;;6.97;3.92;;;;;;;;;;5030770;28;20096;-65
2022/08/02 05:18:45;;;;;;;6.40;3.85;;;;;;;;;;5029550;28;20025;-65
2022/08/02 05:21:11;;;;;;;7.22;3.90;;;;;;;;;;5028947;28;20392;-65
2022/08/02 05:23:36;;;;;;;7.00;4.18;;;;;;;;;;5027657;28;20045;-65
2022/08/02 05:26:01;;;;;;;7.65;4.28;;;;;;;;;;5028513;28;20427;-65
2022/08/02 05:28:27;;;;;;;7.00;4.35;;;;;;;;;;5026885;28;20075;-65
2022/08/02 05:30:52;;;;;;;9.00;4.93;;;;;;;;;;5027394;28;20079;-65
2022/08/02 05:33:17;;;;;;;9.45;4.78;;;;;;;;;;5025594;28;20067;-65
2022/08/02 05:35:43;;;;;;;11.73;4.55;;;;;;;;;;5028417;28;20047;-65
2022/08/02 05:38:08;;;;;;;9.60;4.60;;;;;;;;;;5028823;28;20033;-65
2022/08/02 05:40:34;;;;;;;10.40;4.63;;;;;;;;;;5030932;28;20026;-65
2022/08/02 05:42:59;;;;;;;10.65;5.00;;;;;;;;;;5029660;28;20033;-65
2022/08/02 05:45:24;;;;;;;9.73;4.28;;;;;;;;;;5028017;28;20108;-65
2022/08/02 05:47:50;;;;;;;6.65;4.60;;;;;;;;;;5023083;28;20041;-65
2022/08/02 05:50:16;;;;;;;7.82;4.20;;;;;;;;;;5026715;28;20044;-65
2022/08/02 05:52:47;;;;;;;7.20;4.25;;;;;;;;;;5022655;28;20022;-65
2022/08/02 05:55:25;;;;;;;9.35;4.63;;;;;;;;;;5030414;28;20458;-65
2022/08/02 05:58:12;;;;;;;7.82;3.90;;;;;;;;;;5025753;28;20454;-65
2022/08/02 06:00:40;;;;;;;5.85;3.83;;;;;;;;;;5027983;28;20517;-65
2022/08/02 06:03:15;;;;;;;9.05;4.38;;;;;;;;;;5029007;28;20029;-65
2022/08/02 06:05:52;;;;;;;6.90;3.63;;;;;;;;;;5026269;28;20072;-65
2022/08/02 06:08:20;;;;;;;6.45;3.65;;;;;;;;;;5027416;28;20065;-65
2022/08/02 06:10:47;;;;;;;8.30;4.28;;;;;;;;;;5033447;28;20025;-65
2022/08/02 06:13:15;;;;;;;8.73;4.05;;;;;;;;;;5028693;28;20049;-65
2022/08/02 06:15:42;;;;;;;7.20;4.03;;;;;;;;;;5029207;28;20029;-65
2022/08/02 06:18:07;;;;;;;7.97;4.05;;;;;;;;;;5028504;28;20037;-65
2022/08/02 06:20:34;;;;;;;8.75;4.90;;;;;;;;;;5026147;28;20499;-65
2022/08/02 06:23:10;;;;;;;10.35;4.80;;;;;;;;;;5028868;28;20041;-65
2022/08/02 06:25:37;;;;;;;8.93;4.63;;;;;;;;;;5025684;28;20037;-65
2022/08/02 06:28:05;;;;;;;11.68;4.20;;;;;;;;;;5026661;28;20029;-65
2022/08/02 06:30:32;;;;;;;8.02;4.45;;;;;;;;;;5030094;28;20427;-65
2022/08/02 06:32:58;;;;;;;8.35;4.30;;;;;;;;;;5029387;28;20083;-65
2022/08/02 06:35:43;;;;;;;9.10;4.68;;;;;;;;;;5026989;28;20029;-65
2022/08/02 06:38:14;;;;;;;7.00;3.90;;;;;;;;;;5030942;28;20037;-65
2022/08/02 06:40:55;;;;;;;8.45;4.10;;;;;;;;;;5023990;28;20024;-65
2022/08/02 06:43:24;;;;;;;8.52;4.10;;;;;;;;;;5023086;28;20108;-65
2022/08/02 06:45:50;;;;;;;8.50;4.13;;;;;;;;;;5024375;28;20518;-66
2022/08/02 06:48:15;;;;;;;9.23;4.28;;;;;;;;;;5027798;28;20040;-65
2022/08/02 06:50:42;;;;;;;9.48;4.30;;;;;;;;;;5026713;28;20025;-65
2022/08/02 06:53:09;;;;;;;9.07;4.32;;;;;;;;;;5027694;28;20033;-65
2022/08/02 06:55:34;;;;;;;6.88;3.95;;;;;;;;;;5031124;28;20021;-65
2022/08/02 06:58:00;;;;;;;9.40;4.25;;;;;;;;;;5024594;28;20087;-65
2022/08/02 07:00:26;;;;;;;7.10;3.97;;;;;;;;;;5026153;28;20033;-65
2022/08/02 07:02:52;;;;;;;11.07;4.22;;;;;;;;;;5022513;28;20041;-65
2022/08/02 07:05:18;;;;;;;8.00;4.28;;;;;;;;;;5025351;28;20457;-65
2022/08/02 07:07:44;;;;;;;7.20;4.00;;;;;;;;;;5025911;28;20140;-65
2022/08/02 07:10:09;;;;;;;7.30;3.58;;;;;;;;;;5027665;28;20998;-66
2022/08/02 07:12:35;;;;;;;6.65;3.50;;;;;;;;;;5024930;28;20621;-65
2022/08/02 07:15:03;;;;;;;6.05;3.28;;;;;;;;;;5025685;28;20450;-65
2022/08/02 07:17:29;;;;;;;8.00;3.95;;;;;;;;;;5025617;28;20167;-65
2022/08/02 07:19:55;;;;;;;3.35;2.42;;;;;;;;;;5030574;28;20403;-65
2022/08/02 07:22:23;;;;;;;8.20;3.25;;;;;;;;;;5027646;28;20080;-65
2022/08/02 07:24:49;;;;;;;6.20;3.30;;;;;;;;;;5027168;28;20500;-65
2022/08/02 07:27:14;;;;;;;8.80;3.55;;;;;;;;;;5025745;28;20033;-65
2022/08/02 07:29:40;;;;;;;8.90;3.40;;;;;;;;;;5025684;28;20060;-65
2022/08/02 07:32:06;;;;;;;7.72;3.55;;;;;;;;;;5020006;28;20512;-65
2022/08/02 07:34:31;;;;;;;7.82;3.05;;;;;;;;;;5025445;28;20053;-65
2022/08/02 07:36:57;;;;;;;5.35;2.90;;;;;;;;;;5027031;28;20041;-65
2022/08/02 07:39:22;;;;;;;6.90;3.08;;;;;;;;;;5024570;28;20121;-65
2022/08/02 07:41:50;;;;;;;6.47;3.45;;;;;;;;;;5023839;28;20036;-65
2022/08/02 07:44:16;;;;;;;4.82;2.58;;;;;;;;;;5026586;28;20060;-65
2022/08/02 07:46:41;;;;;;;5.93;3.50;;;;;;;;;;5026425;28;20041;-65
2022/08/02 07:49:07;;;;;;;8.00;3.88;;;;;;;;;;5021415;28;20037;-65
2022/08/02 07:51:34;;;;;;;4.35;3.20;;;;;;;;;;5023641;28;20045;-65
2022/08/02 07:54:00;;;;;;;6.95;3.38;;;;;;;;;;5027647;28;20442;-66
2022/08/02 07:56:25;;;;;;;5.95;3.22;;;;;;;;;;5027573;28;20037;-65
2022/08/02 07:58:50;;;;;;;7.38;3.60;;;;;;;;;;5019449;28;20541;-65
2022/08/02 08:01:16;;;;;;;6.15;3.80;;;;;;;;;;5008336;28;20507;-65
2022/08/02 08:03:41;;;;;;;8.43;4.45;;;;;;;;;;5013684;28;20025;-65
2022/08/02 08:06:06;;;;;;;7.90;3.80;;;;;;;;;;5028141;28;20026;-65
2022/08/02 08:08:33;;;;;;;8.10;3.72;;;;;;;;;;5027382;28;20518;-65
2022/08/02 08:10:59;;;;;;;8.43;3.80;;;;;;;;;;5027643;28;20040;-65
2022/08/02 08:13:24;;;;;;;6.20;3.38;;;;;;;;;;5028151;28;20025;-65
2022/08/02 08:15:50;;;;;;;7.30;3.42;;;;;;;;;;5027440;28;20064;-65
2022/08/02 08:18:15;;;;;;;6.65;3.17;;;;;;;;;;5027611;28;20029;-66
2022/08/02 08:20:40;;;;;;;4.47;2.35;;;;;;;;;;5027836;28;20029;-65
2022/08/02 08:23:06;;;;;;;5.97;2.60;;;;;;;;;;5028996;28;20075;-65
2022/08/02 08:25:31;;;;;;;4.32;3.05;;;;;;;;;;5032686;28;20029;-65
2022/08/02 08:27:56;;;;;;;6.03;3.00;;;;;;;;;;5029829;28;20084;-65
2022/08/02 08:30:22;;;;;;;4.63;3.10;;;;;;;;;;5032077;28;20038;-65
2022/08/02 08:32:48;;;;;;;4.70;2.90;;;;;;;;;;5027596;28;20048;-65
2022/08/02 08:35:13;;;;;;;5.57;2.65;;;;;;;;;;5033867;28;20080;-66
2022/08/02 08:37:39;;;;;;;7.32;3.25;;;;;;;;;;5043308;28;20501;-65
2022/08/02 08:40:06;;;;;;;5.22;3.33;;;;;;;;;;5022128;28;20032;-65
2022/08/02 08:42:32;;;;;;;3.75;2.65;;;;;;;;;;5030336;28;20041;-65
2022/08/02 08:44:58;;;;;;;4.00;2.63;;;;;;;;;;5018190;28;20580;-65
2022/08/02 08:47:33;;;;;;;5.85;2.50;;;;;;;;;;5027082;28;20037;-65
2022/08/02 08:50:03;;;;;;;4.15;2.70;;;;;;;;;;5026483;28;20037;-65
2022/08/02 08:52:35;;;;;;;5.20;2.95;;;;;;;;;;5031042;28;20104;-65
2022/08/02 08:55:03;;;;;;;4.70;2.70;;;;;;;;;;5024847;28;20392;-66
2022/08/02 08:57:29;;;;;;;3.20;2.40;;;;;;;;;;5010602;28;20034;-65
2022/08/02 08:59:55;;;;;;;5.80;3.17;;;;;;;;;;5029145;28;20400;-65
2022/08/02 09:02:21;;;;;;;5.90;2.90;;;;;;;;;;5030118;28;20568;-65
2022/08/02 09:04:47;;;;;;;6.75;4.32;;;;;;;;;;5029917;28;20063;-66
2022/08/02 09:07:13;;;;;;;4.20;2.83;;;;;;;;;;5031255;28;20017;-65
2022/08/02 09:09:38;;;;;;;5.35;3.67;;;;;;;;;;5028941;28;20410;-65
2022/08/02 09:12:18;;;;;;;6.32;3.28;;;;;;;;;;5026903;28;20041;-65
2022/08/02 09:14:45;;;;;;;4.57;2.72;;;;;;;;;;5027027;28;21796;-66
2022/08/02 09:17:11;;;;;;;3.80;2.58;;;;;;;;;;5025576;28;20153;-65
2022/08/02 09:19:38;;;;;;;4.88;2.83;;;;;;;;;;5029114;28;20025;-65
2022/08/02 09:22:06;;;;;;;4.80;2.97;;;;;;;;;;5028784;28;20064;-65
2022/08/02 09:24:50;;;;;;;3.20;2.42;;;;;;;;;;5026579;28;20079;-65
2022/08/02 09:27:18;;;;;;;4.78;2.58;;;;;;;;;;5016551;28;20038;-65
2022/08/02 09:29:51;;;;;;;3.50;2.50;;;;;;;;;;5009081;28;20033;-66
2022/08/02 09:32:17;;;;;;;5.45;2.75;;;;;;;;;;5010396;28;20045;-65
2022/08/02 09:34:53;;;;;;;5.03;2.55;;;;;;;;;;5018170;28;20549;-65
2022/08/02 09:37:31;;;;;;;3.65;2.33;;;;;;;;;;5025175;28;21438;-65
2022/08/02 09:40:02;;;;;;;3.58;2.50;;;;;;;;;;5023998;28;20053;-65
2022/08/02 09:42:28;;;;;;;5.05;2.72;;;;;;;;;;5022192;28;20127;-66
2022/08/02 09:44:55;;;;;;;6.40;2.60;;;;;;;;;;5026187;28;20565;-65
2022/08/02 09:47:22;;;;;;;4.85;2.70;;;;;;;;;;5025349;28;20042;-65
2022/08/02 09:49:47;;;;;;;3.10;2.30;;;;;;;;;;5024400;28;20036;-65
2022/08/02 09:52:13;;;;;;;3.75;2.38;;;;;;;;;;5023684;28;20025;-65
2022/08/02 09:54:40;;;;;;;4.35;2.67;;;;;;;;;;5023687;28;20056;-66
2022/08/02 09:57:06;;;;;;;3.25;2.35;;;;;;;;;;5026895;28;20056;-65
2022/08/02 09:59:31;;;;;;;5.70;1.95;;;;;;;;;;5026478;28;20046;-66
2022/08/02 10:01:58;;;;;;;10.52;3.38;;;;;;;;;;5023539;28;20037;-66
2022/08/02 10:04:27;;;;;;;6.80;2.08;;;;;;;;;;5028618;28;20074;-65
2022/08/02 10:06:53;;;;;;;4.20;2.30;;;;;;;;;;5023287;28;20080;-65
2022/08/02 10:09:19;;;;;;;2.75;2.05;;;;;;;;;;5029339;28;20576;-66
2022/08/02 10:11:44;;;;;;;4.07;2.40;;;;;;;;;;5028913;28;20037;-66
2022/08/02 10:14:10;;;;;;;3.40;2.60;;;;;;;;;;5027953;28;20039;-66
2022/08/02 10:16:40;;;;;;;4.28;2.03;;;;;;;;;;5029947;28;20558;-66
2022/08/02 10:19:06;;;;;;;3.55;2.10;;;;;;;;;;5013443;28;20091;-66
2022/08/02 10:21:57;;;;;;;5.93;2.30;;;;;;;;;;5028977;28;20049;-66
2022/08/02 10:24:26;;;;;;;4.30;2.00;;;;;;;;;;5029342;28;20037;-66
2022/08/02 10:26:52;;;;;;;2.78;1.88;;;;;;;;;;5028253;28;20057;-65
2022/08/02 10:29:22;;;;;;;3.33;1.98;;;;;;;;;;5027158;28;20146;-65
2022/08/02 10:31:54;;;;;;;2.75;1.90;;;;;;;;;;5028864;28;20044;-65
2022/08/02 10:34:26;;;;;;;3.75;1.77;;;;;;;;;;5028636;28;20031;-66
2022/08/02 10:36:52;;;;;;;2.42;1.80;;;;;;;;;;5028947;28;20763;-66
2022/08/02 10:39:18;;;;;;;4.22;1.75;;;;;;;;;;5027726;28;20407;-66
2022/08/02 10:41:46;;;;;;;4.60;1.80;;;;;;;;;;5029140;28;20044;-66
2022/08/02 10:44:28;;;;;;;3.70;1.70;;;;;;;;;;5029603;28;20041;-66
2022/08/02 10:47:13;;;;;;;5.35;1.88;;;;;;;;;;5027369;28;20892;-66
2022/08/02 10:49:54;;;;;;;1.90;1.65;;;;;;;;;;5028478;28;20048;-66
2022/08/02 10:52:21;;;;;;;3.88;1.60;;;;;;;;;;5023988;28;20037;-66
2022/08/02 10:54:54;;;;;;;4.38;1.90;;;;;;;;;;5028015;28;20061;-66
2022/08/02 10:57:23;;;;;;;2.45;1.40;;;;;;;;;;5025386;28;20037;-65
2022/08/02 10:59:57;;;;;;;4.00;1.83;;;;;;;;;;5026660;28;20039;-65
2022/08/02 11:02:52;;;;;;;3.42;1.52;;;;;;;;;;5025962;28;20167;-66
2022/08/02 11:05:30;;;;;;;2.83;1.80;;;;;;;;;;5015286;28;20122;-66
2022/08/02 11:07:56;;;;;;;1.73;1.40;;;;;;;;;;5021023;28;20025;-66
2022/08/02 11:10:24;;;;;;;4.30;1.45;;;;;;;;;;5024747;28;20024;-65
2022/08/02 11:13:03;;;;;;;2.40;1.38;;;;;;;;;;5026952;28;20466;-65
2022/08/02 11:15:29;;;;;;;2.08;1.50;;;;;;;;;;5028981;28;20037;-66
2022/08/02 11:18:00;;;;;;;2.95;1.30;;;;;;;;;;5024409;28;20038;-65
2022/08/02 11:20:26;;;;;;;3.25;1.50;;;;;;;;;;5023003;28;20049;-66
2022/08/02 11:22:54;;;;;;;3.55;1.58;;;;;;;;;;5022520;28;20400;-66
2022/08/02 11:25:22;;;;;;;2.70;1.70;;;;;;;;;;5027073;28;20049;-66
2022/08/02 11:27:52;;;;;;;1.52;1.40;;;;;;;;;;5026252;28;20451;-66
2022/08/02 11:30:18;;;;;;;2.33;1.50;;;;;;;;;;5024534;28;20037;-66
2022/08/02 11:32:44;;;;;;;2.45;1.27;;;;;;;;;;5033487;28;20030;-66
2022/08/02 11:35:10;;;;;;;1.50;1.40;;;;;;;;;;5025193;28;20479;-66
2022/08/02 11:37:45;;;;;;;2.53;1.50;;;;;;;;;;5023067;28;20076;-66
2022/08/02 11:40:16;;;;;;;3.38;1.27;;;;;;;;;;5019884;28;20041;-66
2022/08/02 11:42:43;;;;;;;1.95;1.60;;;;;;;;;;5022259;28;20029;-66
2022/08/02 11:45:12;;;;;;;2.53;1.90;;;;;;;;;;5023563;28;20037;-66
2022/08/02 11:47:53;;;;;;;1.92;1.42;;;;;;;;;;5028030;28;20064;-66
2022/08/02 11:50:25;;;;;;;2.03;1.50;;;;;;;;;;5027576;28;20053;-66
2022/08/02 11:52:54;;;;;;;4.72;1.52;;;;;;;;;;5027613;28;20156;-65
2022/08/02 11:55:29;;;;;;;1.67;1.45;;;;;;;;;;5028305;28;20124;-65
2022/08/02 11:58:03;;;;;;;1.60;1.40;;;;;;;;;;5030252;28;20194;-66
2022/08/02 12:00:29;;;;;;;2.88;1.50;;;;;;;;;;5042214;28;20033;-66
2022/08/02 12:02:54;;;;;;;2.28;1.25;;;;;;;;;;5027521;28;20513;-66
2022/08/02 12:05:25;;;;;;;2.15;1.50;;;;;;;;;;5024471;28;20084;-66
2022/08/02 12:07:51;;;;;;;1.70;1.40;;;;;;;;;;5023214;28;20021;-66
2022/08/02 12:10:19;;;;;;;2.10;1.67;;;;;;;;;;5021006;28;20498;-65
2022/08/02 12:12:50;;;;;;;3.90;1.70;;;;;;;;;;5022516;28;20053;-66
2022/08/02 12:15:36;;;;;;;1.42;1.30;;;;;;;;;;5024238;28;20744;-66
2022/08/02 12:20:52;;;;;;;4.05;1.50;;;;;;;;;;5017495;28;20060;-66
2022/08/02 12:23:17;;;;;;;8.23;1.50;;;;;;;;;;5016052;28;20045;-66
2022/08/02 12:25:43;;;;;;;1.60;1.33;;;;;;;;;;5011686;28;20030;-66
2022/08/02 12:28:15;;;;;;;4.10;1.40;;;;;;;;;;5007110;28;20032;-66
2022/08/02 12:30:57;;;;;;;1.90;1.42;;;;;;;;;;5017064;28;20092;-66
2022/08/02 12:33:25;;;;;;;2.63;1.50;;;;;;;;;;5019641;28;20037;-66
2022/08/02 12:35:50;;;;;;;6.45;1.30;;;;;;;;;;5019564;28;20132;-66
2022/08/02 12:38:16;;;;;;;1.40;1.30;;;;;;;;;;5026393;28;20037;-66
2022/08/02 12:40:42;;;;;;;1.77;1.10;;;;;;;;;;5025904;28;20065;-66
2022/08/02 12:43:18;;;;;;;2.10;1.40;;;;;;;;;;5026678;28;20120;-66
2022/08/02 12:45:50;;;;;;;1.38;1.20;;;;;;;;;;5026449;28;20076;-66
2022/08/02 12:48:29;;;;;;;2.42;1.30;;;;;;;;;;5026568;28;20041;-66
2022/08/02 12:50:54;;;;;;;3.33;1.20;;;;;;;;;;5026592;28;20537;-66
2022/08/02 12:53:19;;;;;;;1.42;1.30;;;;;;;;;;5023656;28;20053;-66
2022/08/02 12:55:51;;;;;;;2.53;1.52;;;;;;;;;;5009298;28;20065;-66
2022/08/02 12:58:16;;;;;;;3.95;1.42;;;;;;;;;;5023018;28;20033;-66
2022/08/02 13:00:42;;;;;;;2.95;1.40;;;;;;;;;;5021270;28;20041;-66
2022/08/02 13:03:08;;;;;;;2.97;1.42;;;;;;;;;;5021780;28;20044;-66
2022/08/02 13:05:35;;;;;;;5.95;1.30;;;;;;;;;;5027726;28;20029;-66
2022/08/02 13:08:02;;;;;;;2.15;1.30;;;;;;;;;;5032047;28;20132;-66
2022/08/02 13:10:28;;;;;;;2.83;1.30;;;;;;;;;;5026840;28;20539;-66
2022/08/02 13:12:54;;;;;;;1.40;1.20;;;;;;;;;;5030324;28;20128;-66
2022/08/02 13:15:20;;;;;;;3.10;1.40;;;;;;;;;;5028594;28;20063;-66
2022/08/02 13:17:46;;;;;;;3.47;1.33;;;;;;;;;;5017198;28;20497;-66
2022/08/02 13:20:13;;;;;;;1.35;1.25;;;;;;;;;;5022354;28;20037;-66
2022/08/02 13:22:39;;;;;;;2.42;1.00;;;;;;;;;;5015998;28;20029;-66
2022/08/02 13:25:05;;;;;;;3.55;1.40;;;;;;;;;;5025854;28;20036;-66
2022/08/02 13:27:31;;;;;;;2.55;1.30;;;;;;;;;;5017816;28;20899;-66
2022/08/02 13:29:57;;;;;;;1.52;1.13;;;;;;;;;;5018873;28;21166;-66
2022/08/02 13:32:24;;;;;;;3.88;1.27;;;;;;;;;;5020630;28;20512;-66
2022/08/02 13:34:50;;;;;;;1.77;0.95;;;;;;;;;;5021426;28;20494;-66
2022/08/02 13:37:16;;;;;;;1.92;1.00;;;;;;;;;;5018032;28;20033;-66
2022/08/02 13:39:41;;;;;;;1.75;1.20;;;;;;;;;;5020835;28;20044;-66
2022/08/02 13:42:06;;;;;;;2.83;1.30;;;;;;;;;;5022304;28;20140;-66
2022/08/02 13:44:33;;;;;;;2.65;1.20;;;;;;;;;;5022131;28;20128;-66
2022/08/02 13:46:59;;;;;;;2.10;1.05;;;;;;;;;;5021151;28;20034;-66
2022/08/02 13:49:25;;;;;;;3.28;0.90;;;;;;;;;;5019263;28;20403;-66
2022/08/02 13:51:50;;;;;;;1.20;1.00;;;;;;;;;;5022670;28;20580;-66
2022/08/02 13:54:15;;;;;;;2.20;1.08;;;;;;;;;;5012724;28;20046;-66
2022/08/02 13:56:41;;;;;;;3.25;1.05;;;;;;;;;;5009593;28;20038;-66
2022/08/02 13:59:06;;;;;;;2.85;0.80;;;;;;;;;;5042613;28;20620;-66
2022/08/02 14:01:32;;;;;;;2.40;0.98;;;;;;;;;;5023127;28;20026;-66
2022/08/02 14:03:58;;;;;;;2.03;1.08;;;;;;;;;;5019091;28;20449;-66
2022/08/02 14:06:24;;;;;;;1.63;1.10;;;;;;;;;;5018387;28;20103;-66
2022/08/02 14:08:49;;;;;;;3.92;1.10;;;;;;;;;;5024219;28;20037;-66
2022/08/02 14:11:15;;;;;;;2.47;1.17;;;;;;;;;;5018305;28;20050;-66
2022/08/02 14:13:40;;;;;;;2.65;1.08;;;;;;;;;;5019232;28;20040;-66
2022/08/02 14:16:06;;;;;;;2.45;1.02;;;;;;;;;;5021840;28;20423;-66
2022/08/02 14:18:31;;;;;;;3.13;0.95;;;;;;;;;;5017028;28;20033;-66
2022/08/02 14:20:56;;;;;;;1.67;0.90;;;;;;;;;;5018299;28;20045;-66
2022/08/02 14:23:22;;;;;;;2.75;1.08;;;;;;;;;;5017046;28;20654;-66
2022/08/02 14:25:48;;;;;;;4.63;1.00;;;;;;;;;;5019839;28;20033;-66
2022/08/02 14:28:13;;;;;;;4.88;1.40;;;;;;;;;;5020112;28;20033;-66
2022/08/02 14:30:38;;;;;;;1.95;1.00;;;;;;;;;;5019469;28;20045;-65
2022/08/02 14:33:04;;;;;;;3.78;1.10;;;;;;;;;;5008811;28;20068;-66
2022/08/02 14:35:29;;;;;;;1.05;0.90;;;;;;;;;;5013811;28;20479;-66
2022/08/02 14:37:55;;;;;;;3.67;1.10;;;;;;;;;;5017182;28;20037;-66
2022/08/02 14:40:20;;;;;;;4.88;1.27;;;;;;;;;;5018333;28;20094;-66
2022/08/02 14:42:46;;;;;;;3.42;1.10;;;;;;;;;;5018039;28;20033;-66
2022/08/02 14:45:11;;;;;;;1.85;1.20;;;;;;;;;;5020554;28;20037;-66
2022/08/02 14:47:37;;;;;;;3.85;1.13;;;;;;;;;;5021294;28;20446;-66
2022/08/02 14:50:03;;;;;;;2.42;1.25;;;;;;;;;;5017858;28;20098;-66